sensor_id;sensor_type;location;lat;lon;timestamp;temperature;humidity
51950;DHT22;37974;53.218;6.640;2022-08-19T00:01:48;15.10;99.90
51950;DHT22;37974;53.218;6.640;2022-08-19T00:04:17;15.10;99.90
51950;DHT22;37974;53.218;6.640;2022-08-19T00:06:44;15.10;99.90
51950;DHT22;37974;53.218;6.640;2022-08-19T00:09:14;15.00;99.90
51950;DHT22;37974;53.218;6.640;2022-08-19T00:11:40;15.00;99.90
51950;DHT22;37974;53.218;6.640;2022-08-19T00:14:08;15.00;99.90
51950;DHT22;37974;53.218;6.640;2022-08-19T00:16:36;15.00;99.90
51950;DHT22;37974;53.218;6.640;2022-08-19T00:19:03;15.10;99.90
51950;DHT22;37974;53.218;6.640;2022-08-19T00:21:29;15.00;99.90
51950;DHT22;37974;53.218;6.640;2022-08-19T00:23:57;15.00;99.90
51950;DHT22;37974;53.218;6.640;2022-08-19T00:26:25;15.00;99.90
51950;DHT22;37974;53.218;6.640;2022-08-19T00:28:51;15.00;99.90
51950;DHT22;37974;53.218;6.640;2022-08-19T00:31:17;15.00;99.90
51950;DHT22;37974;53.218;6.640;2022-08-19T00:33:43;15.00;99.90
51950;DHT22;37974;53.218;6.640;2022-08-19T00:36:09;15.00;99.90
51950;DHT22;37974;53.218;6.640;2022-08-19T00:38:37;14.90;99.90
51950;DHT22;37974;53.218;6.640;2022-08-19T00:41:09;14.90;99.90
51950;DHT22;37974;53.218;6.640;2022-08-19T00:43:35;14.80;99.90
51950;DHT22;37974;53.218;6.640;2022-08-19T00:46:01;14.80;99.90
51950;DHT22;37974;53.218;6.640;2022-08-19T00:48:31;14.70;99.90
51950;DHT22;37974;53.218;6.640;2022-08-19T00:50:57;14.60;99.90
51950;DHT22;37974;53.218;6.640;2022-08-19T00:53:26;14.60;99.90
51950;DHT22;37974;53.218;6.640;2022-08-19T00:55:55;14.60;99.90
51950;DHT22;37974;53.218;6.640;2022-08-19T00:58:25;14.40;99.90
51950;DHT22;37974;53.218;6.640;2022-08-19T01:00:52;14.50;99.90
51950;DHT22;37974;53.218;6.640;2022-08-19T01:03:20;14.50;99.90
51950;DHT22;37974;53.218;6.640;2022-08-19T01:05:47;14.50;99.90
51950;DHT22;37974;53.218;6.640;2022-08-19T01:08:15;14.40;99.90
51950;DHT22;37974;53.218;6.640;2022-08-19T01:10:45;14.40;99.90
51950;DHT22;37974;53.218;6.640;2022-08-19T01:13:14;14.40;99.90
51950;DHT22;37974;53.218;6.640;2022-08-19T01:15:46;14.40;99.90
51950;DHT22;37974;53.218;6.640;2022-08-19T01:18:15;14.40;99.90
51950;DHT22;37974;53.218;6.640;2022-08-19T01:20:43;14.40;99.90
51950;DHT22;37974;53.218;6.640;2022-08-19T01:23:09;14.40;99.90
51950;DHT22;37974;53.218;6.640;2022-08-19T01:25:41;14.30;99.90
51950;DHT22;37974;53.218;6.640;2022-08-19T01:28:07;14.30;99.90
51950;DHT22;37974;53.218;6.640;2022-08-19T01:30:34;14.30;99.90
51950;DHT22;37974;53.218;6.640;2022-08-19T01:33:01;14.30;99.90
51950;DHT22;37974;53.218;6.640;2022-08-19T01:35:29;14.20;99.90
51950;DHT22;37974;53.218;6.640;2022-08-19T01:38:00;14.20;99.90
51950;DHT22;37974;53.218;6.640;2022-08-19T01:40:29;14.20;99.90
51950;DHT22;37974;53.218;6.640;2022-08-19T01:42:56;14.10;99.90
51950;DHT22;37974;53.218;6.640;2022-08-19T01:45:24;14.10;99.90
51950;DHT22;37974;53.218;6.640;2022-08-19T01:47:51;14.10;99.90
51950;DHT22;37974;53.218;6.640;2022-08-19T01:50:17;14.00;99.90
51950;DHT22;37974;53.218;6.640;2022-08-19T01:52:44;14.00;99.90
51950;DHT22;37974;53.218;6.640;2022-08-19T01:55:13;14.00;99.90
51950;DHT22;37974;53.218;6.640;2022-08-19T01:57:42;14.00;99.90
51950;DHT22;37974;53.218;6.640;2022-08-19T02:00:11;13.90;99.90
51950;DHT22;37974;53.218;6.640;2022-08-19T02:02:37;13.90;99.90
51950;DHT22;37974;53.218;6.640;2022-08-19T02:05:03;13.90;99.90
51950;DHT22;37974;53.218;6.640;2022-08-19T02:07:29;13.80;99.90
51950;DHT22;37974;53.218;6.640;2022-08-19T02:09:55;13.90;99.90
51950;DHT22;37974;53.218;6.640;2022-08-19T02:12:21;13.80;99.90
51950;DHT22;37974;53.218;6.640;2022-08-19T02:14:47;13.80;99.90
51950;DHT22;37974;53.218;6.640;2022-08-19T02:17:14;13.80;99.90
51950;DHT22;37974;53.218;6.640;2022-08-19T02:19:40;13.80;99.90
51950;DHT22;37974;53.218;6.640;2022-08-19T02:22:06;13.80;99.90
51950;DHT22;37974;53.218;6.640;2022-08-19T02:24:32;13.70;99.90
51950;DHT22;37974;53.218;6.640;2022-08-19T02:26:57;13.70;99.90
51950;DHT22;37974;53.218;6.640;2022-08-19T02:29:24;13.70;99.90
51950;DHT22;37974;53.218;6.640;2022-08-19T02:31:50;13.70;99.90
51950;DHT22;37974;53.218;6.640;2022-08-19T02:34:17;13.70;99.90
51950;DHT22;37974;53.218;6.640;2022-08-19T02:36:44;13.70;99.90
51950;DHT22;37974;53.218;6.640;2022-08-19T02:39:10;13.70;99.90
51950;DHT22;37974;53.218;6.640;2022-08-19T02:41:36;13.70;99.90
51950;DHT22;37974;53.218;6.640;2022-08-19T02:44:02;13.80;99.90
51950;DHT22;37974;53.218;6.640;2022-08-19T02:46:31;13.80;99.90
51950;DHT22;37974;53.218;6.640;2022-08-19T02:49:03;13.80;99.90
51950;DHT22;37974;53.218;6.640;2022-08-19T02:51:35;13.80;99.90
51950;DHT22;37974;53.218;6.640;2022-08-19T02:54:02;13.80;99.90
51950;DHT22;37974;53.218;6.640;2022-08-19T02:56:29;13.80;99.90
51950;DHT22;37974;53.218;6.640;2022-08-19T02:58:57;13.80;99.90
51950;DHT22;37974;53.218;6.640;2022-08-19T03:01:25;13.70;99.90
51950;DHT22;37974;53.218;6.640;2022-08-19T03:03:52;13.70;99.90
51950;DHT22;37974;53.218;6.640;2022-08-19T03:06:19;13.70;99.90
51950;DHT22;37974;53.218;6.640;2022-08-19T03:08:46;13.70;99.90
51950;DHT22;37974;53.218;6.640;2022-08-19T03:11:18;13.70;99.90
51950;DHT22;37974;53.218;6.640;2022-08-19T03:13:45;13.70;99.90
51950;DHT22;37974;53.218;6.640;2022-08-19T03:16:11;13.70;99.90
51950;DHT22;37974;53.218;6.640;2022-08-19T03:18:38;13.80;99.90
51950;DHT22;37974;53.218;6.640;2022-08-19T03:21:05;13.90;99.90
51950;DHT22;37974;53.218;6.640;2022-08-19T03:23:31;13.90;99.90
51950;DHT22;37974;53.218;6.640;2022-08-19T03:25:57;13.90;99.90
51950;DHT22;37974;53.218;6.640;2022-08-19T03:28:23;13.90;99.90
51950;DHT22;37974;53.218;6.640;2022-08-19T03:30:57;13.90;99.90
51950;DHT22;37974;53.218;6.640;2022-08-19T03:33:24;13.80;99.90
51950;DHT22;37974;53.218;6.640;2022-08-19T03:36:03;13.80;99.90
51950;DHT22;37974;53.218;6.640;2022-08-19T03:38:29;13.90;99.90
51950;DHT22;37974;53.218;6.640;2022-08-19T03:40:55;13.80;99.90
51950;DHT22;37974;53.218;6.640;2022-08-19T03:43:21;13.80;99.90
51950;DHT22;37974;53.218;6.640;2022-08-19T03:45:46;13.80;99.90
51950;DHT22;37974;53.218;6.640;2022-08-19T03:48:14;13.90;99.90
51950;DHT22;37974;53.218;6.640;2022-08-19T03:50:42;13.80;99.90
51950;DHT22;37974;53.218;6.640;2022-08-19T03:53:07;13.80;99.90
51950;DHT22;37974;53.218;6.640;2022-08-19T03:55:39;13.80;99.90
51950;DHT22;37974;53.218;6.640;2022-08-19T03:58:05;13.80;99.90
51950;DHT22;37974;53.218;6.640;2022-08-19T04:00:32;13.70;99.90
51950;DHT22;37974;53.218;6.640;2022-08-19T04:02:58;13.70;99.90
51950;DHT22;37974;53.218;6.640;2022-08-19T04:05:27;13.70;99.90
51950;DHT22;37974;53.218;6.640;2022-08-19T04:07:53;13.60;99.90
51950;DHT22;37974;53.218;6.640;2022-08-19T04:10:22;13.50;99.90
51950;DHT22;37974;53.218;6.640;2022-08-19T04:12:49;13.50;99.90
51950;DHT22;37974;53.218;6.640;2022-08-19T04:15:15;13.50;99.90
51950;DHT22;37974;53.218;6.640;2022-08-19T04:17:41;13.50;99.90
51950;DHT22;37974;53.218;6.640;2022-08-19T04:20:07;13.50;99.90
51950;DHT22;37974;53.218;6.640;2022-08-19T04:22:32;13.50;99.90
51950;DHT22;37974;53.218;6.640;2022-08-19T04:24:58;13.50;99.90
51950;DHT22;37974;53.218;6.640;2022-08-19T04:27:24;13.50;99.90
51950;DHT22;37974;53.218;6.640;2022-08-19T04:29:49;13.50;99.90
51950;DHT22;37974;53.218;6.640;2022-08-19T04:32:15;13.40;99.90
51950;DHT22;37974;53.218;6.640;2022-08-19T04:34:41;13.50;99.90
51950;DHT22;37974;53.218;6.640;2022-08-19T04:37:08;13.50;99.90
51950;DHT22;37974;53.218;6.640;2022-08-19T04:39:37;13.50;99.90
51950;DHT22;37974;53.218;6.640;2022-08-19T04:42:22;13.50;99.90
51950;DHT22;37974;53.218;6.640;2022-08-19T04:45:05;13.50;99.90
51950;DHT22;37974;53.218;6.640;2022-08-19T04:47:31;13.50;99.90
51950;DHT22;37974;53.218;6.640;2022-08-19T04:49:58;13.60;99.90
51950;DHT22;37974;53.218;6.640;2022-08-19T04:52:24;13.50;99.90
51950;DHT22;37974;53.218;6.640;2022-08-19T04:54:50;13.50;99.90
51950;DHT22;37974;53.218;6.640;2022-08-19T04:57:15;13.50;99.90
51950;DHT22;37974;53.218;6.640;2022-08-19T04:59:41;13.50;99.90
51950;DHT22;37974;53.218;6.640;2022-08-19T05:02:09;13.60;99.90
51950;DHT22;37974;53.218;6.640;2022-08-19T05:04:35;13.70;99.90
51950;DHT22;37974;53.218;6.640;2022-08-19T05:07:04;13.70;99.90
51950;DHT22;37974;53.218;6.640;2022-08-19T05:09:30;13.70;99.90
51950;DHT22;37974;53.218;6.640;2022-08-19T05:11:57;13.80;99.90
51950;DHT22;37974;53.218;6.640;2022-08-19T05:14:22;13.80;99.90
51950;DHT22;37974;53.218;6.640;2022-08-19T05:16:49;13.80;99.90
51950;DHT22;37974;53.218;6.640;2022-08-19T05:19:15;13.80;99.90
51950;DHT22;37974;53.218;6.640;2022-08-19T05:22:00;13.90;99.90
51950;DHT22;37974;53.218;6.640;2022-08-19T05:24:44;14.00;99.90
51950;DHT22;37974;53.218;6.640;2022-08-19T05:27:10;14.00;99.90
51950;DHT22;37974;53.218;6.640;2022-08-19T05:29:36;14.10;99.90
51950;DHT22;37974;53.218;6.640;2022-08-19T05:32:03;14.20;99.90
51950;DHT22;37974;53.218;6.640;2022-08-19T05:34:31;14.20;99.90
51950;DHT22;37974;53.218;6.640;2022-08-19T05:36:59;14.30;99.90
51950;DHT22;37974;53.218;6.640;2022-08-19T05:39:27;14.30;99.90
51950;DHT22;37974;53.218;6.640;2022-08-19T05:41:58;14.50;99.90
51950;DHT22;37974;53.218;6.640;2022-08-19T05:44:27;14.60;99.90
51950;DHT22;37974;53.218;6.640;2022-08-19T05:46:55;14.80;99.90
51950;DHT22;37974;53.218;6.640;2022-08-19T05:49:22;14.90;99.90
51950;DHT22;37974;53.218;6.640;2022-08-19T05:51:48;15.00;99.90
51950;DHT22;37974;53.218;6.640;2022-08-19T05:54:14;15.10;99.90
51950;DHT22;37974;53.218;6.640;2022-08-19T05:56:42;15.30;99.90
51950;DHT22;37974;53.218;6.640;2022-08-19T05:59:09;15.40;99.90
51950;DHT22;37974;53.218;6.640;2022-08-19T06:01:39;15.40;99.90
51950;DHT22;37974;53.218;6.640;2022-08-19T06:04:06;15.70;99.90
51950;DHT22;37974;53.218;6.640;2022-08-19T06:06:32;15.80;99.90
51950;DHT22;37974;53.218;6.640;2022-08-19T06:09:04;15.90;99.90
51950;DHT22;37974;53.218;6.640;2022-08-19T06:14:08;16.20;99.90
51950;DHT22;37974;53.218;6.640;2022-08-19T06:16:36;16.30;99.90
51950;DHT22;37974;53.218;6.640;2022-08-19T06:19:06;16.40;99.90
51950;DHT22;37974;53.218;6.640;2022-08-19T06:21:34;16.50;99.90
51950;DHT22;37974;53.218;6.640;2022-08-19T06:24:00;16.70;99.90
51950;DHT22;37974;53.218;6.640;2022-08-19T06:26:26;16.70;99.90
51950;DHT22;37974;53.218;6.640;2022-08-19T06:28:52;16.80;99.90
51950;DHT22;37974;53.218;6.640;2022-08-19T06:31:22;17.00;99.90
51950;DHT22;37974;53.218;6.640;2022-08-19T06:33:48;17.10;99.90
51950;DHT22;37974;53.218;6.640;2022-08-19T06:36:18;17.20;99.90
51950;DHT22;37974;53.218;6.640;2022-08-19T06:38:44;17.40;99.90
51950;DHT22;37974;53.218;6.640;2022-08-19T06:41:10;17.40;99.90
51950;DHT22;37974;53.218;6.640;2022-08-19T06:43:36;17.60;99.90
51950;DHT22;37974;53.218;6.640;2022-08-19T06:46:03;17.60;99.90
51950;DHT22;37974;53.218;6.640;2022-08-19T06:48:30;17.70;99.90
51950;DHT22;37974;53.218;6.640;2022-08-19T06:54:34;17.90;99.90
51950;DHT22;37974;53.218;6.640;2022-08-19T06:57:08;18.10;99.90
51950;DHT22;37974;53.218;6.640;2022-08-19T06:59:44;18.20;99.90
51950;DHT22;37974;53.218;6.640;2022-08-19T07:02:10;18.30;99.90
51950;DHT22;37974;53.218;6.640;2022-08-19T07:04:38;18.40;99.90
51950;DHT22;37974;53.218;6.640;2022-08-19T07:07:09;18.50;99.90
51950;DHT22;37974;53.218;6.640;2022-08-19T07:09:39;18.60;99.90
51950;DHT22;37974;53.218;6.640;2022-08-19T07:12:07;18.70;99.90
51950;DHT22;37974;53.218;6.640;2022-08-19T07:14:46;18.80;99.90
51950;DHT22;37974;53.218;6.640;2022-08-19T07:17:16;18.90;99.90
51950;DHT22;37974;53.218;6.640;2022-08-19T07:19:56;18.90;99.90
51950;DHT22;37974;53.218;6.640;2022-08-19T07:22:25;19.10;99.90
51950;DHT22;37974;53.218;6.640;2022-08-19T07:24:52;19.20;99.90
51950;DHT22;37974;53.218;6.640;2022-08-19T07:27:18;19.30;99.90
51950;DHT22;37974;53.218;6.640;2022-08-19T07:29:45;19.40;99.90
51950;DHT22;37974;53.218;6.640;2022-08-19T07:32:11;19.50;99.90
51950;DHT22;37974;53.218;6.640;2022-08-19T07:34:37;19.60;99.90
51950;DHT22;37974;53.218;6.640;2022-08-19T07:37:05;19.60;99.90
51950;DHT22;37974;53.218;6.640;2022-08-19T07:39:33;19.70;99.90
51950;DHT22;37974;53.218;6.640;2022-08-19T07:42:00;19.80;99.90
51950;DHT22;37974;53.218;6.640;2022-08-19T07:44:27;19.90;99.90
51950;DHT22;37974;53.218;6.640;2022-08-19T07:47:04;20.00;99.90
51950;DHT22;37974;53.218;6.640;2022-08-19T07:49:38;20.10;99.90
51950;DHT22;37974;53.218;6.640;2022-08-19T07:52:09;20.30;99.90
51950;DHT22;37974;53.218;6.640;2022-08-19T07:54:42;20.30;99.90
51950;DHT22;37974;53.218;6.640;2022-08-19T07:57:12;20.40;99.90
51950;DHT22;37974;53.218;6.640;2022-08-19T07:59:40;20.50;99.90
51950;DHT22;37974;53.218;6.640;2022-08-19T08:02:06;20.60;99.90
51950;DHT22;37974;53.218;6.640;2022-08-19T08:04:34;20.70;99.90
51950;DHT22;37974;53.218;6.640;2022-08-19T08:07:18;20.70;99.90
51950;DHT22;37974;53.218;6.640;2022-08-19T08:10:05;20.80;99.90
51950;DHT22;37974;53.218;6.640;2022-08-19T08:12:36;20.90;99.90
51950;DHT22;37974;53.218;6.640;2022-08-19T08:15:10;21.10;99.90
51950;DHT22;37974;53.218;6.640;2022-08-19T08:17:42;21.10;99.90
51950;DHT22;37974;53.218;6.640;2022-08-19T08:20:08;21.30;99.90
51950;DHT22;37974;53.218;6.640;2022-08-19T08:22:35;21.40;99.90
51950;DHT22;37974;53.218;6.640;2022-08-19T08:25:23;21.50;99.90
51950;DHT22;37974;53.218;6.640;2022-08-19T08:27:49;21.60;99.90
51950;DHT22;37974;53.218;6.640;2022-08-19T08:30:18;21.60;99.90
51950;DHT22;37974;53.218;6.640;2022-08-19T08:32:45;21.70;99.90
51950;DHT22;37974;53.218;6.640;2022-08-19T08:35:14;21.70;99.90
51950;DHT22;37974;53.218;6.640;2022-08-19T08:37:44;21.80;99.90
51950;DHT22;37974;53.218;6.640;2022-08-19T08:40:21;21.90;99.90
51950;DHT22;37974;53.218;6.640;2022-08-19T08:42:57;22.00;99.90
51950;DHT22;37974;53.218;6.640;2022-08-19T08:45:28;22.10;99.90
51950;DHT22;37974;53.218;6.640;2022-08-19T08:48:01;22.20;99.90
51950;DHT22;37974;53.218;6.640;2022-08-19T08:50:31;22.30;99.90
51950;DHT22;37974;53.218;6.640;2022-08-19T08:53:01;22.30;99.90
51950;DHT22;37974;53.218;6.640;2022-08-19T08:55:32;22.30;99.90
51950;DHT22;37974;53.218;6.640;2022-08-19T08:58:03;22.50;99.90
51950;DHT22;37974;53.218;6.640;2022-08-19T09:00:33;22.50;99.90
51950;DHT22;37974;53.218;6.640;2022-08-19T09:03:00;22.50;99.90
51950;DHT22;37974;53.218;6.640;2022-08-19T09:08:33;22.70;99.90
51950;DHT22;37974;53.218;6.640;2022-08-19T09:11:06;22.80;99.90
51950;DHT22;37974;53.218;6.640;2022-08-19T09:13:41;22.90;99.90
51950;DHT22;37974;53.218;6.640;2022-08-19T09:16:16;23.00;99.90
51950;DHT22;37974;53.218;6.640;2022-08-19T09:18:53;23.00;99.90
51950;DHT22;37974;53.218;6.640;2022-08-19T09:21:21;23.10;99.90
51950;DHT22;37974;53.218;6.640;2022-08-19T09:23:52;23.10;99.90
51950;DHT22;37974;53.218;6.640;2022-08-19T09:26:20;23.20;99.90
51950;DHT22;37974;53.218;6.640;2022-08-19T09:28:48;23.30;99.90
51950;DHT22;37974;53.218;6.640;2022-08-19T09:31:20;23.30;99.90
51950;DHT22;37974;53.218;6.640;2022-08-19T09:33:47;23.50;99.90
51950;DHT22;37974;53.218;6.640;2022-08-19T09:36:15;23.50;99.90
51950;DHT22;37974;53.218;6.640;2022-08-19T09:38:41;23.50;99.90
51950;DHT22;37974;53.218;6.640;2022-08-19T09:41:11;23.60;99.90
51950;DHT22;37974;53.218;6.640;2022-08-19T09:43:37;23.70;99.90
51950;DHT22;37974;53.218;6.640;2022-08-19T09:46:04;23.70;99.90
51950;DHT22;37974;53.218;6.640;2022-08-19T09:48:32;23.80;99.90
51950;DHT22;37974;53.218;6.640;2022-08-19T09:51:05;23.90;99.90
51950;DHT22;37974;53.218;6.640;2022-08-19T09:53:34;23.90;99.90
51950;DHT22;37974;53.218;6.640;2022-08-19T09:56:00;23.90;99.90
51950;DHT22;37974;53.218;6.640;2022-08-19T09:58:27;24.00;99.90
51950;DHT22;37974;53.218;6.640;2022-08-19T10:00:55;24.00;99.90
51950;DHT22;37974;53.218;6.640;2022-08-19T10:03:22;24.00;99.90
51950;DHT22;37974;53.218;6.640;2022-08-19T10:05:48;24.00;99.90
51950;DHT22;37974;53.218;6.640;2022-08-19T10:08:16;24.10;99.90
51950;DHT22;37974;53.218;6.640;2022-08-19T10:10:42;24.20;99.90
51950;DHT22;37974;53.218;6.640;2022-08-19T10:13:10;24.20;99.90
51950;DHT22;37974;53.218;6.640;2022-08-19T10:15:36;24.30;99.90
51950;DHT22;37974;53.218;6.640;2022-08-19T10:18:05;24.40;99.90
51950;DHT22;37974;53.218;6.640;2022-08-19T10:20:31;24.40;99.90
51950;DHT22;37974;53.218;6.640;2022-08-19T10:22:57;24.50;99.90
51950;DHT22;37974;53.218;6.640;2022-08-19T10:25:25;24.60;99.90
51950;DHT22;37974;53.218;6.640;2022-08-19T10:27:52;24.70;99.90
51950;DHT22;37974;53.218;6.640;2022-08-19T10:30:19;24.80;99.90
51950;DHT22;37974;53.218;6.640;2022-08-19T10:32:45;24.90;99.90
51950;DHT22;37974;53.218;6.640;2022-08-19T10:35:12;24.90;99.90
51950;DHT22;37974;53.218;6.640;2022-08-19T10:37:39;24.90;99.90
51950;DHT22;37974;53.218;6.640;2022-08-19T10:40:06;25.00;99.90
51950;DHT22;37974;53.218;6.640;2022-08-19T10:42:39;25.00;99.90
51950;DHT22;37974;53.218;6.640;2022-08-19T10:45:07;25.10;99.90
51950;DHT22;37974;53.218;6.640;2022-08-19T10:47:38;25.10;99.90
51950;DHT22;37974;53.218;6.640;2022-08-19T10:50:04;25.10;99.90
51950;DHT22;37974;53.218;6.640;2022-08-19T10:52:49;25.20;99.90
51950;DHT22;37974;53.218;6.640;2022-08-19T10:55:17;25.40;99.90
51950;DHT22;37974;53.218;6.640;2022-08-19T10:58:10;25.30;99.90
51950;DHT22;37974;53.218;6.640;2022-08-19T11:01:01;25.30;99.90
51950;DHT22;37974;53.218;6.640;2022-08-19T11:03:27;25.40;99.90
51950;DHT22;37974;53.218;6.640;2022-08-19T11:06:00;25.30;99.90
51950;DHT22;37974;53.218;6.640;2022-08-19T11:08:26;25.10;99.90
51950;DHT22;37974;53.218;6.640;2022-08-19T11:10:53;25.00;99.90
51950;DHT22;37974;53.218;6.640;2022-08-19T11:13:24;24.80;99.90
51950;DHT22;37974;53.218;6.640;2022-08-19T11:16:04;24.80;99.90
51950;DHT22;37974;53.218;6.640;2022-08-19T11:18:39;24.80;99.90
51950;DHT22;37974;53.218;6.640;2022-08-19T11:21:09;24.70;99.90
51950;DHT22;37974;53.218;6.640;2022-08-19T11:23:35;24.90;99.90
51950;DHT22;37974;53.218;6.640;2022-08-19T11:26:04;24.90;99.90
51950;DHT22;37974;53.218;6.640;2022-08-19T11:28:32;24.90;99.90
51950;DHT22;37974;53.218;6.640;2022-08-19T11:30:58;24.80;99.90
51950;DHT22;37974;53.218;6.640;2022-08-19T11:33:24;25.00;99.90
51950;DHT22;37974;53.218;6.640;2022-08-19T11:35:56;25.20;99.90
51950;DHT22;37974;53.218;6.640;2022-08-19T11:38:23;25.40;99.90
51950;DHT22;37974;53.218;6.640;2022-08-19T11:40:56;25.60;99.90
51950;DHT22;37974;53.218;6.640;2022-08-19T11:43:22;25.70;99.90
51950;DHT22;37974;53.218;6.640;2022-08-19T11:45:51;26.00;99.90
51950;DHT22;37974;53.218;6.640;2022-08-19T11:48:17;26.00;99.90
51950;DHT22;37974;53.218;6.640;2022-08-19T11:50:57;26.10;99.90
51950;DHT22;37974;53.218;6.640;2022-08-19T11:53:23;26.10;99.90
51950;DHT22;37974;53.218;6.640;2022-08-19T11:55:49;26.20;99.90
51950;DHT22;37974;53.218;6.640;2022-08-19T11:58:17;26.10;99.90
51950;DHT22;37974;53.218;6.640;2022-08-19T12:00:43;26.00;99.90
51950;DHT22;37974;53.218;6.640;2022-08-19T12:03:13;26.00;99.90
51950;DHT22;37974;53.218;6.640;2022-08-19T12:05:46;25.90;99.90
51950;DHT22;37974;53.218;6.640;2022-08-19T12:08:15;25.80;99.90
51950;DHT22;37974;53.218;6.640;2022-08-19T12:17:39;26.20;99.90
51950;DHT22;37974;53.218;6.640;2022-08-19T12:20:52;26.00;99.90
51950;DHT22;37974;53.218;6.640;2022-08-19T12:23:54;26.00;99.90
51950;DHT22;37974;53.218;6.640;2022-08-19T12:26:43;26.00;99.90
51950;DHT22;37974;53.218;6.640;2022-08-19T12:29:23;26.00;99.90
51950;DHT22;37974;53.218;6.640;2022-08-19T12:32:20;26.10;99.90
51950;DHT22;37974;53.218;6.640;2022-08-19T12:35:19;26.10;99.90
51950;DHT22;37974;53.218;6.640;2022-08-19T12:38:03;26.10;99.90
51950;DHT22;37974;53.218;6.640;2022-08-19T12:41:10;26.20;99.90
51950;DHT22;37974;53.218;6.640;2022-08-19T12:44:12;26.30;99.90
51950;DHT22;37974;53.218;6.640;2022-08-19T12:46:50;26.10;99.90
51950;DHT22;37974;53.218;6.640;2022-08-19T12:49:36;26.20;99.90
51950;DHT22;37974;53.218;6.640;2022-08-19T12:52:36;26.20;99.90
51950;DHT22;37974;53.218;6.640;2022-08-19T12:55:58;26.10;99.90
51950;DHT22;37974;53.218;6.640;2022-08-19T12:59:02;26.30;99.90
51950;DHT22;37974;53.218;6.640;2022-08-19T13:02:11;26.40;99.90
51950;DHT22;37974;53.218;6.640;2022-08-19T13:07:55;26.50;99.90
51950;DHT22;37974;53.218;6.640;2022-08-19T13:10:56;26.40;99.90
51950;DHT22;37974;53.218;6.640;2022-08-19T13:13:32;26.20;99.90
51950;DHT22;37974;53.218;6.640;2022-08-19T13:19:03;26.20;99.90
51950;DHT22;37974;53.218;6.640;2022-08-19T13:22:40;26.10;99.90
51950;DHT22;37974;53.218;6.640;2022-08-19T13:25:19;26.10;99.90
51950;DHT22;37974;53.218;6.640;2022-08-19T13:31:51;25.90;99.90
51950;DHT22;37974;53.218;6.640;2022-08-19T13:34:52;25.90;99.90
51950;DHT22;37974;53.218;6.640;2022-08-19T13:41:06;26.20;99.90
51950;DHT22;37974;53.218;6.640;2022-08-19T13:49:50;26.10;99.90
51950;DHT22;37974;53.218;6.640;2022-08-19T13:52:40;26.00;99.90
51950;DHT22;37974;53.218;6.640;2022-08-19T13:58:36;25.90;99.90
51950;DHT22;37974;53.218;6.640;2022-08-19T14:01:08;25.70;99.90
51950;DHT22;37974;53.218;6.640;2022-08-19T14:03:56;25.50;99.90
51950;DHT22;37974;53.218;6.640;2022-08-19T14:06:35;25.40;99.90
51950;DHT22;37974;53.218;6.640;2022-08-19T14:09:30;25.30;99.90
51950;DHT22;37974;53.218;6.640;2022-08-19T14:12:35;25.20;99.90
51950;DHT22;37974;53.218;6.640;2022-08-19T14:15:54;25.10;99.90
51950;DHT22;37974;53.218;6.640;2022-08-19T14:19:21;25.10;99.90
51950;DHT22;37974;53.218;6.640;2022-08-19T14:30:48;24.80;99.90
51950;DHT22;37974;53.218;6.640;2022-08-19T14:33:29;24.80;99.90
51950;DHT22;37974;53.218;6.640;2022-08-19T14:36:23;24.80;99.90
51950;DHT22;37974;53.218;6.640;2022-08-19T14:39:37;24.70;99.90
51950;DHT22;37974;53.218;6.640;2022-08-19T14:42:37;24.70;99.90
51950;DHT22;37974;53.218;6.640;2022-08-19T14:46:07;24.50;99.90
51950;DHT22;37974;53.218;6.640;2022-08-19T14:48:47;24.80;99.90
51950;DHT22;37974;53.218;6.640;2022-08-19T14:51:43;24.80;99.90
51950;DHT22;37974;53.218;6.640;2022-08-19T14:54:53;24.80;99.90
51950;DHT22;37974;53.218;6.640;2022-08-19T14:57:52;24.80;99.90
51950;DHT22;37974;53.218;6.640;2022-08-19T15:04:36;24.90;99.90
51950;DHT22;37974;53.218;6.640;2022-08-19T15:07:36;24.90;99.90
51950;DHT22;37974;53.218;6.640;2022-08-19T15:10:41;24.90;99.90
51950;DHT22;37974;53.218;6.640;2022-08-19T15:16:58;25.00;99.90
51950;DHT22;37974;53.218;6.640;2022-08-19T15:22:40;25.00;99.90
51950;DHT22;37974;53.218;6.640;2022-08-19T15:25:37;24.90;99.90
51950;DHT22;37974;53.218;6.640;2022-08-19T15:29:06;24.90;99.90
51950;DHT22;37974;53.218;6.640;2022-08-19T15:35:07;24.80;99.90
51950;DHT22;37974;53.218;6.640;2022-08-19T15:38:00;24.80;99.90
51950;DHT22;37974;53.218;6.640;2022-08-19T15:41:15;24.80;99.90
51950;DHT22;37974;53.218;6.640;2022-08-19T15:47:25;24.90;99.90
51950;DHT22;37974;53.218;6.640;2022-08-19T15:50:37;24.90;99.90
51950;DHT22;37974;53.218;6.640;2022-08-19T15:53:37;24.70;99.90
51950;DHT22;37974;53.218;6.640;2022-08-19T15:57:06;24.70;99.90
51950;DHT22;37974;53.218;6.640;2022-08-19T16:00:39;24.60;99.90
51950;DHT22;37974;53.218;6.640;2022-08-19T16:04:01;24.60;99.90
51950;DHT22;37974;53.218;6.640;2022-08-19T16:06:57;24.40;99.90
51950;DHT22;37974;53.218;6.640;2022-08-19T16:09:59;24.30;99.90
51950;DHT22;37974;53.218;6.640;2022-08-19T16:12:27;24.30;99.90
51950;DHT22;37974;53.218;6.640;2022-08-19T16:14:55;24.20;99.90
51950;DHT22;37974;53.218;6.640;2022-08-19T16:17:21;24.20;99.90
51950;DHT22;37974;53.218;6.640;2022-08-19T16:19:50;24.10;99.90
51950;DHT22;37974;53.218;6.640;2022-08-19T16:22:16;24.00;99.90
51950;DHT22;37974;53.218;6.640;2022-08-19T16:24:42;24.00;99.90
51950;DHT22;37974;53.218;6.640;2022-08-19T16:27:08;24.00;99.90
51950;DHT22;37974;53.218;6.640;2022-08-19T16:29:34;24.00;99.90
51950;DHT22;37974;53.218;6.640;2022-08-19T16:32:03;23.90;99.90
51950;DHT22;37974;53.218;6.640;2022-08-19T16:34:30;23.80;99.90
51950;DHT22;37974;53.218;6.640;2022-08-19T16:36:56;23.80;99.90
51950;DHT22;37974;53.218;6.640;2022-08-19T16:39:21;23.80;99.90
51950;DHT22;37974;53.218;6.640;2022-08-19T16:41:48;23.80;99.90
51950;DHT22;37974;53.218;6.640;2022-08-19T16:44:18;23.80;99.90
51950;DHT22;37974;53.218;6.640;2022-08-19T16:46:45;23.80;99.90
51950;DHT22;37974;53.218;6.640;2022-08-19T16:49:13;23.80;99.90
51950;DHT22;37974;53.218;6.640;2022-08-19T16:51:40;23.70;99.90
51950;DHT22;37974;53.218;6.640;2022-08-19T16:54:10;23.60;99.90
51950;DHT22;37974;53.218;6.640;2022-08-19T16:56:39;23.50;99.90
51950;DHT22;37974;53.218;6.640;2022-08-19T16:59:07;23.30;99.90
51950;DHT22;37974;53.218;6.640;2022-08-19T17:01:35;23.20;99.90
51950;DHT22;37974;53.218;6.640;2022-08-19T17:04:01;23.10;99.90
51950;DHT22;37974;53.218;6.640;2022-08-19T17:06:28;23.10;99.90
51950;DHT22;37974;53.218;6.640;2022-08-19T17:09:00;23.00;99.90
51950;DHT22;37974;53.218;6.640;2022-08-19T17:11:27;22.90;99.90
51950;DHT22;37974;53.218;6.640;2022-08-19T17:13:54;22.80;99.90